sensor_id;sensor_type;location;lat;lon;timestamp;pressure;altitude;pressure_sealevel;temperature;humidity
12468;BME280;57850;52.922;6.256;2023-02-28T00:02:24;103577.59;;;7.42;nan
12468;BME280;57850;52.922;6.256;2023-02-28T00:04:51;103583.56;;;7.38;nan
12468;BME280;57850;52.922;6.256;2023-02-28T00:07:26;103585.03;;;7.27;nan
12468;BME280;57850;52.922;6.256;2023-02-28T00:09:54;103580.53;;;7.18;nan
12468;BME280;57850;52.922;6.256;2023-02-28T00:12:20;103586.41;;;7.10;nan
12468;BME280;57850;52.922;6.256;2023-02-28T00:14:48;103576.84;;;7.09;nan
12468;BME280;57850;52.922;6.256;2023-02-28T00:17:14;103577.03;;;7.16;nan
12468;BME280;57850;52.922;6.256;2023-02-28T00:19:42;103575.59;;;7.30;nan
12468;BME280;57850;52.922;6.256;2023-02-28T00:22:09;103569.56;;;7.30;nan
12468;BME280;57850;52.922;6.256;2023-02-28T00:24:36;103571.34;;;7.32;nan
12468;BME280;57850;52.922;6.256;2023-02-28T00:27:04;103558.41;;;7.35;nan
12468;BME280;57850;52.922;6.256;2023-02-28T00:29:30;103566.78;;;7.24;nan
12468;BME280;57850;52.922;6.256;2023-02-28T00:31:57;103562.59;;;7.29;nan
12468;BME280;57850;52.922;6.256;2023-02-28T00:34:23;103556.47;;;7.25;nan
12468;BME280;57850;52.922;6.256;2023-02-28T00:36:50;103555.31;;;7.13;nan
12468;BME280;57850;52.922;6.256;2023-02-28T00:39:16;103551.13;;;7.19;nan
12468;BME280;57850;52.922;6.256;2023-02-28T00:41:43;103543.41;;;7.22;nan
12468;BME280;57850;52.922;6.256;2023-02-28T00:44:11;103547.78;;;7.23;nan
12468;BME280;57850;52.922;6.256;2023-02-28T00:46:37;103545.25;;;7.28;nan
12468;BME280;57850;52.922;6.256;2023-02-28T00:49:04;103541.00;;;7.31;nan
12468;BME280;57850;52.922;6.256;2023-02-28T00:51:30;103534.22;;;7.38;nan
12468;BME280;57850;52.922;6.256;2023-02-28T00:53:57;103530.78;;;7.40;nan
12468;BME280;57850;52.922;6.256;2023-02-28T00:56:23;103526.59;;;7.47;nan
12468;BME280;57850;52.922;6.256;2023-02-28T00:58:50;103524.00;;;7.47;nan
12468;BME280;57850;52.922;6.256;2023-02-28T01:01:18;103528.44;;;7.51;nan
12468;BME280;57850;52.922;6.256;2023-02-28T01:03:44;103525.84;;;7.52;nan
12468;BME280;57850;52.922;6.256;2023-02-28T01:06:11;103531.63;;;7.38;nan
12468;BME280;57850;52.922;6.256;2023-02-28T01:08:37;103531.50;;;7.32;nan
12468;BME280;57850;52.922;6.256;2023-02-28T01:11:08;103533.31;;;7.36;nan
12468;BME280;57850;52.922;6.256;2023-02-28T01:13:35;103535.56;;;7.21;nan
12468;BME280;57850;52.922;6.256;2023-02-28T01:16:01;103533.72;;;7.15;nan
12468;BME280;57850;52.922;6.256;2023-02-28T01:18:30;103531.88;;;7.10;nan
12468;BME280;57850;52.922;6.256;2023-02-28T01:20:56;103531.31;;;7.23;nan
12468;BME280;57850;52.922;6.256;2023-02-28T01:23:24;103534.84;;;7.26;nan
12468;BME280;57850;52.922;6.256;2023-02-28T01:25:51;103522.88;;;7.34;nan
12468;BME280;57850;52.922;6.256;2023-02-28T01:28:18;103531.50;;;7.33;nan
12468;BME280;57850;52.922;6.256;2023-02-28T01:30:47;103526.47;;;7.41;nan
12468;BME280;57850;52.922;6.256;2023-02-28T01:33:14;103537.69;;;7.38;nan
12468;BME280;57850;52.922;6.256;2023-02-28T01:35:42;103528.19;;;7.39;nan
12468;BME280;57850;52.922;6.256;2023-02-28T01:38:08;103530.78;;;7.39;nan
12468;BME280;57850;52.922;6.256;2023-02-28T01:40:35;103527.25;;;7.37;nan
12468;BME280;57850;52.922;6.256;2023-02-28T01:43:01;103525.72;;;7.46;nan
12468;BME280;57850;52.922;6.256;2023-02-28T01:45:30;103525.59;;;7.39;nan
12468;BME280;57850;52.922;6.256;2023-02-28T01:48:01;103530.50;;;7.27;nan
12468;BME280;57850;52.922;6.256;2023-02-28T01:50:34;103532.28;;;7.28;nan
12468;BME280;57850;52.922;6.256;2023-02-28T01:53:07;103523.06;;;7.42;nan
12468;BME280;57850;52.922;6.256;2023-02-28T01:55:37;103525.53;;;7.37;nan
12468;BME280;57850;52.922;6.256;2023-02-28T01:58:06;103512.59;;;7.39;nan
12468;BME280;57850;52.922;6.256;2023-02-28T02:00:34;103510.06;;;7.43;nan
12468;BME280;57850;52.922;6.256;2023-02-28T02:03:06;103505.03;;;7.51;nan
12468;BME280;57850;52.922;6.256;2023-02-28T02:05:36;103504.59;;;7.28;nan
12468;BME280;57850;52.922;6.256;2023-02-28T02:08:09;103510.06;;;7.00;nan
12468;BME280;57850;52.922;6.256;2023-02-28T02:10:40;103496.69;;;7.22;nan
12468;BME280;57850;52.922;6.256;2023-02-28T02:13:23;103487.34;;;7.32;nan
12468;BME280;57850;52.922;6.256;2023-02-28T02:16:00;103499.56;;;7.36;nan
12468;BME280;57850;52.922;6.256;2023-02-28T02:18:33;103498.38;;;7.22;nan
12468;BME280;57850;52.922;6.256;2023-02-28T02:24:45;103488.22;;;7.32;nan
12468;BME280;57850;52.922;6.256;2023-02-28T02:27:23;103488.31;;;7.37;nan
12468;BME280;57850;52.922;6.256;2023-02-28T02:30:15;103487.53;;;7.41;nan
12468;BME280;57850;52.922;6.256;2023-02-28T02:35:45;103490.78;;;7.29;nan
12468;BME280;57850;52.922;6.256;2023-02-28T02:38:19;103485.50;;;7.26;nan
12468;BME280;57850;52.922;6.256;2023-02-28T02:40:55;103480.44;;;7.32;nan
12468;BME280;57850;52.922;6.256;2023-02-28T02:43:26;103485.97;;;7.07;nan
12468;BME280;57850;52.922;6.256;2023-02-28T02:45:58;103486.63;;;6.98;nan
12468;BME280;57850;52.922;6.256;2023-02-28T02:48:31;103492.25;;;6.76;nan
12468;BME280;57850;52.922;6.256;2023-02-28T02:51:05;103467.81;;;7.07;nan
12468;BME280;57850;52.922;6.256;2023-02-28T02:53:40;103467.00;;;7.10;nan
12468;BME280;57850;52.922;6.256;2023-02-28T02:56:08;103471.06;;;6.98;nan
12468;BME280;57850;52.922;6.256;2023-02-28T02:58:38;103460.03;;;7.07;nan
12468;BME280;57850;52.922;6.256;2023-02-28T03:01:08;103467.50;;;6.92;nan
12468;BME280;57850;52.922;6.256;2023-02-28T03:03:37;103461.56;;;6.99;nan
12468;BME280;57850;52.922;6.256;2023-02-28T03:06:05;103472.41;;;6.80;nan
12468;BME280;57850;52.922;6.256;2023-02-28T03:08:35;103474.09;;;6.76;nan
12468;BME280;57850;52.922;6.256;2023-02-28T03:11:03;103491.38;;;6.40;nan
12468;BME280;57850;52.922;6.256;2023-02-28T03:13:48;103470.84;;;6.49;nan
12468;BME280;57850;52.922;6.256;2023-02-28T03:16:34;103448.06;;;6.73;nan
12468;BME280;57850;52.922;6.256;2023-02-28T03:19:11;103457.31;;;6.61;nan
12468;BME280;57850;52.922;6.256;2023-02-28T03:21:53;103447.22;;;6.74;nan
12468;BME280;57850;52.922;6.256;2023-02-28T03:24:27;103474.47;;;6.56;nan
12468;BME280;57850;52.922;6.256;2023-02-28T03:27:05;103449.72;;;6.71;nan
12468;BME280;57850;52.922;6.256;2023-02-28T03:29:34;103460.47;;;6.47;nan
12468;BME280;57850;52.922;6.256;2023-02-28T03:32:07;103441.75;;;6.62;nan
12468;BME280;57850;52.922;6.256;2023-02-28T03:34:42;103465.31;;;6.34;nan
12468;BME280;57850;52.922;6.256;2023-02-28T03:37:17;103439.94;;;6.58;nan
12468;BME280;57850;52.922;6.256;2023-02-28T03:39:49;103443.13;;;6.46;nan
12468;BME280;57850;52.922;6.256;2023-02-28T03:42:20;103442.97;;;6.39;nan
12468;BME280;57850;52.922;6.256;2023-02-28T03:44:50;103472.41;;;5.74;nan
12468;BME280;57850;52.922;6.256;2023-02-28T03:47:22;103440.81;;;5.85;nan
12468;BME280;57850;52.922;6.256;2023-02-28T03:49:54;103415.84;;;6.25;nan
12468;BME280;57850;52.922;6.256;2023-02-28T03:52:28;103401.38;;;6.34;nan
12468;BME280;57850;52.922;6.256;2023-02-28T03:55:02;103425.31;;;6.23;nan
12468;BME280;57850;52.922;6.256;2023-02-28T03:57:36;103432.91;;;6.15;nan
12468;BME280;57850;52.922;6.256;2023-02-28T04:00:06;103421.09;;;6.26;nan
12468;BME280;57850;52.922;6.256;2023-02-28T04:02:34;103426.81;;;6.13;nan
12468;BME280;57850;52.922;6.256;2023-02-28T04:05:01;103413.59;;;6.38;nan
12468;BME280;57850;52.922;6.256;2023-02-28T04:07:30;103414.59;;;6.45;nan
12468;BME280;57850;52.922;6.256;2023-02-28T04:09:57;103415.56;;;6.50;nan
12468;BME280;57850;52.922;6.256;2023-02-28T04:12:25;103441.56;;;6.16;nan
12468;BME280;57850;52.922;6.256;2023-02-28T04:14:51;103440.09;;;5.91;nan
12468;BME280;57850;52.922;6.256;2023-02-28T04:17:18;103431.81;;;6.06;nan
12468;BME280;57850;52.922;6.256;2023-02-28T04:19:44;103424.50;;;6.25;nan
12468;BME280;57850;52.922;6.256;2023-02-28T04:22:11;103422.31;;;6.42;nan
12468;BME280;57850;52.922;6.256;2023-02-28T04:24:40;103452.72;;;5.80;nan
12468;BME280;57850;52.922;6.256;2023-02-28T04:27:08;103440.13;;;5.60;nan
12468;BME280;57850;52.922;6.256;2023-02-28T04:29:35;103442.72;;;5.60;nan
12468;BME280;57850;52.922;6.256;2023-02-28T04:32:02;103444.44;;;5.28;nan
12468;BME280;57850;52.922;6.256;2023-02-28T04:34:31;103419.09;;;5.82;nan
12468;BME280;57850;52.922;6.256;2023-02-28T04:36:58;103429.16;;;5.70;nan
12468;BME280;57850;52.922;6.256;2023-02-28T04:39:25;103428.22;;;5.66;nan
12468;BME280;57850;52.922;6.256;2023-02-28T04:41:53;103444.09;;;5.16;nan
12468;BME280;57850;52.922;6.256;2023-02-28T04:44:20;103433.25;;;5.29;nan
12468;BME280;57850;52.922;6.256;2023-02-28T04:46:48;103424.28;;;5.48;nan
12468;BME280;57850;52.922;6.256;2023-02-28T04:49:15;103440.16;;;5.30;nan
12468;BME280;57850;52.922;6.256;2023-02-28T04:51:42;103441.94;;;5.31;nan
12468;BME280;57850;52.922;6.256;2023-02-28T04:54:08;103450.84;;;5.11;nan
12468;BME280;57850;52.922;6.256;2023-02-28T04:56:35;103449.63;;;4.70;nan
12468;BME280;57850;52.922;6.256;2023-02-28T04:59:03;103418.47;;;4.94;nan
12468;BME280;57850;52.922;6.256;2023-02-28T05:01:32;103433.00;;;4.60;nan
12468;BME280;57850;52.922;6.256;2023-02-28T05:04:01;103403.28;;;5.06;nan
12468;BME280;57850;52.922;6.256;2023-02-28T05:06:29;103411.19;;;5.10;nan
12468;BME280;57850;52.922;6.256;2023-02-28T05:08:56;103417.72;;;4.98;nan
12468;BME280;57850;52.922;6.256;2023-02-28T05:11:25;103426.94;;;4.90;nan
12468;BME280;57850;52.922;6.256;2023-02-28T05:13:52;103430.69;;;4.69;nan
12468;BME280;57850;52.922;6.256;2023-02-28T05:16:21;103429.44;;;4.86;nan
12468;BME280;57850;52.922;6.256;2023-02-28T05:18:48;103415.47;;;5.10;nan
12468;BME280;57850;52.922;6.256;2023-02-28T05:21:24;103406.09;;;5.46;nan
12468;BME280;57850;52.922;6.256;2023-02-28T05:23:51;103419.69;;;5.37;nan
12468;BME280;57850;52.922;6.256;2023-02-28T05:26:17;103424.75;;;5.67;nan
12468;BME280;57850;52.922;6.256;2023-02-28T05:28:44;103449.03;;;5.38;nan
12468;BME280;57850;52.922;6.256;2023-02-28T05:31:11;103458.34;;;5.02;nan
12468;BME280;57850;52.922;6.256;2023-02-28T05:33:39;103450.41;;;4.96;nan
12468;BME280;57850;52.922;6.256;2023-02-28T05:36:06;103452.97;;;4.94;nan
12468;BME280;57850;52.922;6.256;2023-02-28T05:38:33;103453.19;;;4.73;nan
12468;BME280;57850;52.922;6.256;2023-02-28T05:41:00;103446.41;;;4.77;nan
12468;BME280;57850;52.922;6.256;2023-02-28T05:43:26;103420.31;;;5.29;nan
12468;BME280;57850;52.922;6.256;2023-02-28T05:45:53;103436.97;;;5.38;nan
12468;BME280;57850;52.922;6.256;2023-02-28T05:48:19;103438.59;;;5.35;nan
12468;BME280;57850;52.922;6.256;2023-02-28T05:50:47;103433.44;;;5.36;nan
12468;BME280;57850;52.922;6.256;2023-02-28T05:53:14;103447.09;;;5.31;nan
12468;BME280;57850;52.922;6.256;2023-02-28T05:55:40;103458.41;;;5.03;nan
12468;BME280;57850;52.922;6.256;2023-02-28T05:58:07;103444.03;;;5.14;nan
12468;BME280;57850;52.922;6.256;2023-02-28T06:00:34;103442.16;;;5.07;nan
12468;BME280;57850;52.922;6.256;2023-02-28T06:03:01;103474.94;;;4.52;nan
12468;BME280;57850;52.922;6.256;2023-02-28T06:05:27;103450.97;;;4.85;nan
12468;BME280;57850;52.922;6.256;2023-02-28T06:07:55;103444.50;;;5.00;nan
12468;BME280;57850;52.922;6.256;2023-02-28T06:10:22;103447.66;;;4.90;nan
12468;BME280;57850;52.922;6.256;2023-02-28T06:12:48;103458.00;;;4.90;nan
12468;BME280;57850;52.922;6.256;2023-02-28T06:15:15;103459.59;;;4.84;nan
12468;BME280;57850;52.922;6.256;2023-02-28T06:17:43;103472.16;;;4.72;nan
12468;BME280;57850;52.922;6.256;2023-02-28T06:20:11;103478.84;;;4.66;nan
12468;BME280;57850;52.922;6.256;2023-02-28T06:22:39;103469.31;;;4.93;nan
12468;BME280;57850;52.922;6.256;2023-02-28T06:25:08;103484.00;;;4.38;nan
12468;BME280;57850;52.922;6.256;2023-02-28T06:27:35;103462.97;;;4.54;nan
12468;BME280;57850;52.922;6.256;2023-02-28T06:30:02;103467.84;;;4.45;nan
12468;BME280;57850;52.922;6.256;2023-02-28T06:32:32;103459.81;;;4.64;nan
12468;BME280;57850;52.922;6.256;2023-02-28T06:35:00;103461.91;;;4.75;nan
12468;BME280;57850;52.922;6.256;2023-02-28T06:37:26;103449.84;;;5.06;nan
12468;BME280;57850;52.922;6.256;2023-02-28T06:39:53;103463.19;;;5.19;nan
12468;BME280;57850;52.922;6.256;2023-02-28T06:42:23;103480.63;;;5.26;nan
12468;BME280;57850;52.922;6.256;2023-02-28T06:44:54;103477.44;;;5.35;nan
12468;BME280;57850;52.922;6.256;2023-02-28T06:47:20;103493.78;;;5.34;nan
12468;BME280;57850;52.922;6.256;2023-02-28T06:49:47;103503.31;;;5.35;nan
12468;BME280;57850;52.922;6.256;2023-02-28T06:52:14;103514.22;;;5.25;nan
12468;BME280;57850;52.922;6.256;2023-02-28T06:54:41;103514.06;;;5.19;nan
12468;BME280;57850;52.922;6.256;2023-02-28T06:57:07;103519.69;;;5.06;nan
12468;BME280;57850;52.922;6.256;2023-02-28T06:59:36;103512.44;;;5.22;nan
12468;BME280;57850;52.922;6.256;2023-02-28T07:02:02;103509.16;;;5.28;nan
12468;BME280;57850;52.922;6.256;2023-02-28T07:04:30;103514.66;;;5.40;nan
12468;BME280;57850;52.922;6.256;2023-02-28T07:06:56;103522.25;;;5.34;nan
12468;BME280;57850;52.922;6.256;2023-02-28T07:09:23;103523.53;;;5.48;nan
12468;BME280;57850;52.922;6.256;2023-02-28T07:11:55;103540.22;;;5.29;nan
12468;BME280;57850;52.922;6.256;2023-02-28T07:14:21;103523.66;;;5.53;nan
12468;BME280;57850;52.922;6.256;2023-02-28T07:16:50;103539.19;;;5.23;nan
12468;BME280;57850;52.922;6.256;2023-02-28T07:19:16;103523.00;;;5.60;nan
12468;BME280;57850;52.922;6.256;2023-02-28T07:21:43;103531.31;;;5.48;nan
12468;BME280;57850;52.922;6.256;2023-02-28T07:24:10;103531.00;;;5.69;nan
12468;BME280;57850;52.922;6.256;2023-02-28T07:26:37;103541.94;;;5.59;nan
12468;BME280;57850;52.922;6.256;2023-02-28T07:29:03;103528.44;;;5.70;nan
12468;BME280;57850;52.922;6.256;2023-02-28T07:31:30;103538.56;;;5.61;nan
12468;BME280;57850;52.922;6.256;2023-02-28T07:33:58;103526.81;;;5.74;nan
12468;BME280;57850;52.922;6.256;2023-02-28T07:36:25;103528.34;;;5.67;nan
12468;BME280;57850;52.922;6.256;2023-02-28T07:38:51;103520.06;;;5.79;nan
12468;BME280;57850;52.922;6.256;2023-02-28T07:41:20;103531.59;;;5.90;nan
12468;BME280;57850;52.922;6.256;2023-02-28T07:43:47;103551.72;;;5.69;nan
12468;BME280;57850;52.922;6.256;2023-02-28T07:46:15;103540.78;;;5.79;nan
12468;BME280;57850;52.922;6.256;2023-02-28T07:48:42;103562.53;;;5.24;nan
12468;BME280;57850;52.922;6.256;2023-02-28T07:51:10;103558.59;;;5.09;nan
12468;BME280;57850;52.922;6.256;2023-02-28T07:53:37;103558.88;;;5.18;nan
12468;BME280;57850;52.922;6.256;2023-02-28T07:56:04;103549.75;;;5.30;nan
12468;BME280;57850;52.922;6.256;2023-02-28T07:58:31;103550.91;;;5.40;nan
12468;BME280;57850;52.922;6.256;2023-02-28T08:01:05;103551.63;;;5.36;nan
12468;BME280;57850;52.922;6.256;2023-02-28T08:03:31;103555.16;;;5.38;nan
12468;BME280;57850;52.922;6.256;2023-02-28T08:05:58;103561.00;;;5.31;nan
12468;BME280;57850;52.922;6.256;2023-02-28T08:08:26;103548.06;;;5.31;nan
12468;BME280;57850;52.922;6.256;2023-02-28T08:10:58;103539.25;;;5.54;nan
12468;BME280;57850;52.922;6.256;2023-02-28T08:13:25;103528.81;;;5.84;nan
12468;BME280;57850;52.922;6.256;2023-02-28T08:15:52;103545.03;;;5.77;nan
12468;BME280;57850;52.922;6.256;2023-02-28T08:18:18;103540.38;;;5.95;nan
12468;BME280;57850;52.922;6.256;2023-02-28T08:20:45;103552.66;;;6.02;nan
12468;BME280;57850;52.922;6.256;2023-02-28T08:23:12;103559.47;;;5.99;nan
12468;BME280;57850;52.922;6.256;2023-02-28T08:25:39;103542.41;;;6.07;nan
12468;BME280;57850;52.922;6.256;2023-02-28T08:28:06;103551.09;;;6.09;nan
12468;BME280;57850;52.922;6.256;2023-02-28T08:30:32;103566.72;;;6.12;nan
12468;BME280;57850;52.922;6.256;2023-02-28T08:33:00;103556.72;;;6.25;nan
12468;BME280;57850;52.922;6.256;2023-02-28T08:35:27;103562.72;;;6.23;nan
12468;BME280;57850;52.922;6.256;2023-02-28T08:37:53;103567.81;;;6.20;nan
12468;BME280;57850;52.922;6.256;2023-02-28T08:40:20;103566.00;;;6.17;nan
12468;BME280;57850;52.922;6.256;2023-02-28T08:42:48;103548.66;;;6.49;nan
12468;BME280;57850;52.922;6.256;2023-02-28T08:45:14;103553.84;;;6.49;nan
12468;BME280;57850;52.922;6.256;2023-02-28T08:47:41;103548.22;;;6.67;nan
12468;BME280;57850;52.922;6.256;2023-02-28T08:50:08;103539.22;;;6.88;nan
12468;BME280;57850;52.922;6.256;2023-02-28T08:52:35;103546.94;;;6.87;nan
12468;BME280;57850;52.922;6.256;2023-02-28T08:55:04;103548.81;;;6.92;nan
12468;BME280;57850;52.922;6.256;2023-02-28T08:57:30;103565.19;;;6.90;nan
12468;BME280;57850;52.922;6.256;2023-02-28T09:00:00;103544.81;;;7.08;nan
12468;BME280;57850;52.922;6.256;2023-02-28T09:02:30;103552.59;;;7.08;nan
12468;BME280;57850;52.922;6.256;2023-02-28T09:04:57;103567.84;;;6.93;nan
12468;BME280;57850;52.922;6.256;2023-02-28T09:07:24;103555.13;;;7.04;nan
12468;BME280;57850;52.922;6.256;2023-02-28T09:09:50;103542.56;;;7.23;nan
12468;BME280;57850;52.922;6.256;2023-02-28T09:12:20;103549.63;;;7.30;nan
12468;BME280;57850;52.922;6.256;2023-02-28T09:14:46;103591.72;;;6.78;nan
12468;BME280;57850;52.922;6.256;2023-02-28T09:17:14;103552.94;;;7.65;nan
12468;BME280;57850;52.922;6.256;2023-02-28T09:19:41;103535.59;;;8.12;nan
12468;BME280;57850;52.922;6.256;2023-02-28T09:22:08;103539.38;;;8.28;nan
12468;BME280;57850;52.922;6.256;2023-02-28T09:24:35;103552.38;;;8.28;nan
12468;BME280;57850;52.922;6.256;2023-02-28T09:27:02;103529.13;;;8.92;nan
12468;BME280;57850;52.922;6.256;2023-02-28T09:29:30;103544.34;;;8.68;nan
12468;BME280;57850;52.922;6.256;2023-02-28T09:31:57;103524.44;;;9.33;nan
12468;BME280;57850;52.922;6.256;2023-02-28T09:34:25;103524.00;;;9.71;nan
12468;BME280;57850;52.922;6.256;2023-02-28T09:36:52;103478.13;;;11.31;nan
12468;BME280;57850;52.922;6.256;2023-02-28T09:39:20;103446.75;;;12.70;nan
12468;BME280;57850;52.922;6.256;2023-02-28T09:41:48;103444.13;;;12.69;nan
12468;BME280;57850;52.922;6.256;2023-02-28T09:44:22;103429.25;;;12.75;nan
12468;BME280;57850;52.922;6.256;2023-02-28T09:46:55;103410.75;;;13.16;nan
12468;BME280;57850;52.922;6.256;2023-02-28T09:49:33;103406.22;;;13.43;nan
12468;BME280;57850;52.922;6.256;2023-02-28T09:52:04;103434.53;;;12.66;nan
12468;BME280;57850;52.922;6.256;2023-02-28T09:54:35;103422.16;;;13.00;nan
12468;BME280;57850;52.922;6.256;2023-02-28T09:57:06;103505.09;;;11.19;nan
12468;BME280;57850;52.922;6.256;2023-02-28T09:59:44;103537.81;;;10.57;nan
12468;BME280;57850;52.922;6.256;2023-02-28T10:02:26;103493.88;;;11.57;nan
12468;BME280;57850;52.922;6.256;2023-02-28T10:05:01;103418.66;;;13.12;nan
12468;BME280;57850;52.922;6.256;2023-02-28T10:07:45;103491.16;;;11.17;nan
12468;BME280;57850;52.922;6.256;2023-02-28T10:10:23;103478.25;;;11.72;nan
12468;BME280;57850;52.922;6.256;2023-02-28T10:12:53;103475.56;;;11.43;nan
12468;BME280;57850;52.922;6.256;2023-02-28T10:15:23;103418.88;;;12.50;nan
12468;BME280;57850;52.922;6.256;2023-02-28T10:17:54;103443.34;;;11.58;nan
12468;BME280;57850;52.922;6.256;2023-02-28T10:20:25;103358.31;;;13.19;nan
12468;BME280;57850;52.922;6.256;2023-02-28T10:22:58;103327.81;;;12.97;nan
12468;BME280;57850;52.922;6.256;2023-02-28T10:25:29;103366.53;;;12.34;nan
12468;BME280;57850;52.922;6.256;2023-02-28T10:28:00;103301.13;;;13.64;nan
12468;BME280;57850;52.922;6.256;2023-02-28T10:30:28;103311.78;;;13.46;nan
12468;BME280;57850;52.922;6.256;2023-02-28T10:32:55;103410.22;;;11.66;nan
12468;BME280;57850;52.922;6.256;2023-02-28T10:35:23;103390.19;;;11.59;nan
12468;BME280;57850;52.922;6.256;2023-02-28T10:37:54;103307.34;;;13.55;nan
12468;BME280;57850;52.922;6.256;2023-02-28T10:40:32;103359.34;;;12.88;nan
12468;BME280;57850;52.922;6.256;2023-02-28T10:43:02;103320.56;;;13.41;nan
12468;BME280;57850;52.922;6.256;2023-02-28T10:45:30;103214.09;;;15.19;nan
12468;BME280;57850;52.922;6.256;2023-02-28T10:48:02;103261.88;;;14.34;nan
12468;BME280;57850;52.922;6.256;2023-02-28T10:50:34;103262.44;;;13.84;nan
12468;BME280;57850;52.922;6.256;2023-02-28T10:53:30;103232.41;;;14.09;nan
12468;BME280;57850;52.922;6.256;2023-02-28T10:56:00;103203.44;;;14.78;nan
12468;BME280;57850;52.922;6.256;2023-02-28T10:58:30;103200.66;;;14.85;nan
12468;BME280;57850;52.922;6.256;2023-02-28T11:00:59;103186.41;;;15.00;nan
12468;BME280;57850;52.922;6.256;2023-02-28T11:03:32;103135.59;;;16.27;nan
12468;BME280;57850;52.922;6.256;2023-02-28T11:06:05;103109.09;;;16.71;nan
12468;BME280;57850;52.922;6.256;2023-02-28T11:08:44;103169.22;;;15.30;nan
12468;BME280;57850;52.922;6.256;2023-02-28T11:11:12;103138.09;;;16.34;nan
12468;BME280;57850;52.922;6.256;2023-02-28T11:13:38;103103.56;;;16.80;nan
12468;BME280;57850;52.922;6.256;2023-02-28T11:16:09;103057.50;;;18.12;nan
12468;BME280;57850;52.922;6.256;2023-02-28T11:18:41;103119.03;;;16.60;nan
12468;BME280;57850;52.922;6.256;2023-02-28T11:21:09;103130.38;;;15.87;nan
12468;BME280;57850;52.922;6.256;2023-02-28T11:23:43;103232.78;;;13.76;nan
12468;BME280;57850;52.922;6.256;2023-02-28T11:26:11;103287.56;;;14.05;nan
12468;BME280;57850;52.922;6.256;2023-02-28T11:28:39;103300.88;;;13.88;nan
12468;BME280;57850;52.922;6.256;2023-02-28T11:31:16;103303.34;;;14.03;nan
12468;BME280;57850;52.922;6.256;2023-02-28T11:33:46;103314.75;;;13.99;nan
12468;BME280;57850;52.922;6.256;2023-02-28T11:36:18;103276.94;;;14.82;nan
12468;BME280;57850;52.922;6.256;2023-02-28T11:38:48;103313.97;;;13.91;nan
12468;BME280;57850;52.922;6.256;2023-02-28T11:41:34;103224.38;;;15.34;nan
12468;BME280;57850;52.922;6.256;2023-02-28T11:44:24;103169.63;;;16.37;nan
12468;BME280;57850;52.922;6.256;2023-02-28T11:46:56;103124.16;;;17.00;nan
12468;BME280;57850;52.922;6.256;2023-02-28T11:49:36;103104.94;;;17.27;nan
12468;BME280;57850;52.922;6.256;2023-02-28T11:52:14;103110.09;;;16.99;nan
12468;BME280;57850;52.922;6.256;2023-02-28T11:55:02;103190.13;;;15.36;nan
12468;BME280;57850;52.922;6.256;2023-02-28T11:57:52;103140.22;;;16.91;nan
12468;BME280;57850;52.922;6.256;2023-02-28T12:00:35;103144.91;;;16.41;nan
12468;BME280;57850;52.922;6.256;2023-02-28T12:03:15;103230.97;;;14.53;nan
12468;BME280;57850;52.922;6.256;2023-02-28T12:05:46;103229.16;;;15.13;nan
12468;BME280;57850;52.922;6.256;2023-02-28T12:08:26;103185.94;;;15.73;nan
12468;BME280;57850;52.922;6.256;2023-02-28T12:11:06;103088.28;;;17.54;nan
12468;BME280;57850;52.922;6.256;2023-02-28T12:13:44;103053.84;;;18.16;nan
12468;BME280;57850;52.922;6.256;2023-02-28T12:16:24;103028.38;;;18.66;nan
12468;BME280;57850;52.922;6.256;2023-02-28T12:19:03;103016.31;;;19.07;nan
12468;BME280;57850;52.922;6.256;2023-02-28T12:21:41;102998.97;;;18.98;nan
12468;BME280;57850;52.922;6.256;2023-02-28T12:24:31;103060.34;;;17.78;nan
12468;BME280;57850;52.922;6.256;2023-02-28T12:27:08;103153.44;;;16.16;nan
12468;BME280;57850;52.922;6.256;2023-02-28T12:29:42;103212.44;;;15.15;nan
12468;BME280;57850;52.922;6.256;2023-02-28T12:32:14;103236.06;;;15.18;nan
12468;BME280;57850;52.922;6.256;2023-02-28T12:34:46;103240.56;;;15.12;nan
12468;BME280;57850;52.922;6.256;2023-02-28T12:37:17;103266.88;;;14.51;nan
12468;BME280;57850;52.922;6.256;2023-02-28T12:39:50;103275.75;;;14.43;nan
12468;BME280;57850;52.922;6.256;2023-02-28T12:42:24;103246.63;;;14.59;nan
12468;BME280;57850;52.922;6.256;2023-02-28T12:44:57;103210.84;;;15.07;nan
12468;BME280;57850;52.922;6.256;2023-02-28T12:47:25;103134.38;;;16.41;nan
12468;BME280;57850;52.922;6.256;2023-02-28T12:49:54;103200.84;;;14.73;nan
12468;BME280;57850;52.922;6.256;2023-02-28T12:52:27;103209.16;;;15.01;nan
12468;BME280;57850;52.922;6.256;2023-02-28T12:55:00;103167.47;;;15.29;nan
12468;BME280;57850;52.922;6.256;2023-02-28T12:57:36;103103.84;;;16.33;nan
12468;BME280;57850;52.922;6.256;2023-02-28T13:00:13;103132.13;;;15.42;nan
12468;BME280;57850;52.922;6.256;2023-02-28T13:03:01;103081.13;;;16.66;nan
12468;BME280;57850;52.922;6.256;2023-02-28T13:06:03;103061.50;;;17.08;nan
12468;BME280;57850;52.922;6.256;2023-02-28T13:09:01;103053.66;;;17.05;nan
12468;BME280;57850;52.922;6.256;2023-02-28T13:11:32;103067.41;;;16.50;nan
12468;BME280;57850;52.922;6.256;2023-02-28T13:14:04;103010.78;;;17.58;nan
12468;BME280;57850;52.922;6.256;2023-02-28T13:16:57;103001.06;;;17.87;nan
12468;BME280;57850;52.922;6.256;2023-02-28T13:19:27;102981.38;;;17.97;nan
12468;BME280;57850;52.922;6.256;2023-02-28T13:21:56;103055.41;;;16.03;nan
12468;BME280;57850;52.922;6.256;2023-02-28T13:24:44;102997.91;;;17.46;nan
12468;BME280;57850;52.922;6.256;2023-02-28T13:27:32;102982.41;;;18.19;nan
12468;BME280;57850;52.922;6.256;2023-02-28T13:32:43;102961.91;;;18.26;nan
12468;BME280;57850;52.922;6.256;2023-02-28T13:35:15;103004.22;;;17.13;nan
12468;BME280;57850;52.922;6.256;2023-02-28T13:38:22;103017.81;;;17.29;nan
12468;BME280;57850;52.922;6.256;2023-02-28T13:40:49;102977.84;;;17.98;nan
12468;BME280;57850;52.922;6.256;2023-02-28T13:43:17;103024.88;;;17.28;nan
12468;BME280;57850;52.922;6.256;2023-02-28T13:46:10;103061.34;;;16.11;nan